createdAt,value
2022-12-18T00:00:58.061Z,102581.73
2022-12-18T00:02:02.481Z,102582.19
2022-12-18T00:03:07.222Z,102582.56
2022-12-18T00:04:12.354Z,102583.73
2022-12-18T00:05:16.896Z,102581.98
2022-12-18T00:06:21.110Z,102584.66
2022-12-18T00:07:25.355Z,102578.18
2022-12-18T00:08:29.636Z,102580.19
2022-12-18T00:09:40.934Z,102588.92
2022-12-18T00:10:45.187Z,102589.67
2022-12-18T00:11:49.435Z,102586.95
2022-12-18T00:12:53.698Z,102588.5
2022-12-18T00:13:57.929Z,102593.3
2022-12-18T00:15:02.159Z,102585.2
2022-12-18T00:16:06.626Z,102590.72
2022-12-18T00:17:11.200Z,102586.88
2022-12-18T00:18:21.402Z,102593.39
2022-12-18T00:19:25.645Z,102588.33
2022-12-18T00:20:29.938Z,102587.88
2022-12-18T00:21:34.219Z,102595.69
2022-12-18T00:22:38.455Z,102593.77
2022-12-18T00:23:43.754Z,102593.84
2022-12-18T00:24:48.060Z,102596.14
2022-12-18T00:25:52.297Z,102598.53
2022-12-18T00:26:56.530Z,102588.75
2022-12-18T00:28:00.765Z,102596.48
2022-12-18T00:29:06.724Z,102593.14
2022-12-18T00:30:11.246Z,102597.03
2022-12-18T00:31:16.180Z,102597.61
2022-12-18T00:32:20.509Z,102593.98
2022-12-18T00:33:24.776Z,102598.36
2022-12-18T00:34:28.999Z,102599.48
2022-12-18T00:35:33.218Z,102605.17
2022-12-18T00:36:37.492Z,102605.71
2022-12-18T00:37:41.734Z,102607.52
2022-12-18T00:38:45.990Z,102609.73
2022-12-18T00:39:50.517Z,102613.28
2022-12-18T00:40:54.863Z,102614.11
2022-12-18T00:41:59.155Z,102618.26
2022-12-18T00:43:03.385Z,102624.93
2022-12-18T00:44:07.644Z,102623.37
2022-12-18T00:45:14.254Z,102620.08
2022-12-18T00:46:18.685Z,102631.23
2022-12-18T00:47:23.946Z,102631.23
2022-12-18T00:48:28.165Z,102631.36
2022-12-18T00:49:32.397Z,102628.72
2022-12-18T00:50:36.660Z,102628.64
2022-12-18T00:51:40.893Z,102628.14
2022-12-18T00:52:45.421Z,102630.55
2022-12-18T00:53:49.629Z,102637.75
2022-12-18T00:54:53.848Z,102634.49
2022-12-18T00:55:58.109Z,102633.66
2022-12-18T00:57:02.350Z,102640.34
2022-12-18T00:58:06.607Z,102648.36
2022-12-18T00:59:10.841Z,102641.05
2022-12-18T01:00:15.110Z,102646.27
2022-12-18T01:01:19.612Z,102645.39
2022-12-18T01:02:24.519Z,102649.94
2022-12-18T01:03:29.061Z,102653.77
2022-12-18T01:04:33.285Z,102657.45
2022-12-18T01:05:37.547Z,102659.7
2022-12-18T01:06:41.789Z,102661.04
2022-12-18T01:07:46.005Z,102661.58
2022-12-18T01:08:50.238Z,102670.39
2022-12-18T01:09:54.442Z,102666.81
2022-12-18T01:10:58.657Z,102664.05
2022-12-18T01:12:02.891Z,102664.36
2022-12-18T01:13:07.126Z,102668.03
2022-12-18T01:14:11.355Z,102659.81
2022-12-18T01:15:15.637Z,102661.53
2022-12-18T01:16:19.983Z,102667.56
2022-12-18T01:17:24.287Z,102672.07
2022-12-18T01:18:28.515Z,102665.74
2022-12-18T01:19:32.744Z,102670.52
2022-12-18T01:20:36.971Z,102666.05
2022-12-18T01:21:41.177Z,102672.65
2022-12-18T01:22:45.407Z,102665.83
2022-12-18T01:23:49.691Z,102670.55
2022-12-18T01:24:53.953Z,102668.2
2022-12-18T01:25:58.454Z,102665.33
2022-12-18T01:27:02.656Z,102671.09
2022-12-18T01:28:06.934Z,102665.61
2022-12-18T01:29:11.153Z,102664.84
2022-12-18T01:30:15.359Z,102672.33
2022-12-18T01:31:19.738Z,102668.39
2022-12-18T01:32:24.167Z,102666.09
2022-12-18T01:33:30.863Z,102663.35
2022-12-18T01:34:35.106Z,102670.95
2022-12-18T01:35:39.893Z,102665.94
2022-12-18T01:36:44.120Z,102676.88
2022-12-18T01:37:48.359Z,102669.23
2022-12-18T01:38:52.613Z,102675.3
2022-12-18T01:39:56.834Z,102676.44
2022-12-18T01:41:01.081Z,102678.05
2022-12-18T01:42:05.313Z,102679.35
2022-12-18T01:43:09.587Z,102677.3
2022-12-18T01:44:13.836Z,102681.8
2022-12-18T01:45:18.397Z,102679.93
2022-12-18T01:46:23.770Z,102679.7
2022-12-18T01:47:27.985Z,102678.79
2022-12-18T01:48:32.275Z,102673.06
2022-12-18T01:49:36.514Z,102676.69
2022-12-18T01:50:40.764Z,102669.92
2022-12-18T01:51:45.025Z,102671.11
2022-12-18T01:52:49.294Z,102673.28
2022-12-18T01:53:53.503Z,102674.36
2022-12-18T01:54:57.712Z,102680.05
2022-12-18T01:56:01.979Z,102674.2
2022-12-18T01:57:06.229Z,102679.7
2022-12-18T01:58:10.514Z,102685.2
2022-12-18T01:59:14.719Z,102683.95
2022-12-18T02:00:18.916Z,102682.23
2022-12-18T02:01:23.463Z,102686.63
2022-12-18T02:02:28.134Z,102691.05
2022-12-18T02:03:32.560Z,102696.12
2022-12-18T02:04:36.790Z,102694.19
2022-12-18T02:05:41.023Z,102693.5
2022-12-18T02:06:45.343Z,102693.2
2022-12-18T02:07:49.947Z,102694.53
2022-12-18T02:08:54.204Z,102699.01
2022-12-18T02:09:58.426Z,102696.71
2022-12-18T02:11:02.651Z,102700.38
2022-12-18T02:12:06.926Z,102704.69
2022-12-18T02:13:12.149Z,102700.27
2022-12-18T02:14:16.354Z,102707.67
2022-12-18T02:15:20.590Z,102711.11
2022-12-18T02:16:25.135Z,102713.36
2022-12-18T02:17:29.926Z,102725.3
2022-12-18T02:18:34.143Z,102711.02
2022-12-18T02:19:38.384Z,102713.36
2022-12-18T02:20:42.606Z,102713.4
2022-12-18T02:21:46.867Z,102712.52
2022-12-18T02:22:51.095Z,102711.02
2022-12-18T02:23:55.294Z,102719.2
2022-12-18T02:24:59.532Z,102713.78
2022-12-18T02:26:03.752Z,102714.54
2022-12-18T02:27:08.002Z,102714.42
2022-12-18T02:28:12.204Z,102715.23
2022-12-18T02:29:16.454Z,102718.28
2022-12-18T02:30:20.665Z,102718.7
2022-12-18T02:31:24.890Z,102720.91
2022-12-18T02:32:29.109Z,102717.67
2022-12-18T02:33:33.311Z,102713.09
2022-12-18T02:34:37.539Z,102716.3
2022-12-18T02:35:41.804Z,102707.74
2022-12-18T02:36:46.011Z,102711.98
2022-12-18T02:37:50.244Z,102714.54
2022-12-18T02:38:54.519Z,102718.24
2022-12-18T02:39:58.762Z,102715.61
2022-12-18T02:41:03.009Z,102716.61
2022-12-18T02:42:07.240Z,102711.6
2022-12-18T02:43:11.476Z,102714.27
2022-12-18T02:44:15.715Z,102716.95
2022-12-18T02:45:19.920Z,102724.36
2022-12-18T02:46:24.690Z,102713.28
2022-12-18T02:47:28.901Z,102711.03
2022-12-18T02:48:33.112Z,102707.45
2022-12-18T02:49:37.328Z,102719.62
2022-12-18T02:50:41.577Z,102713.17
2022-12-18T02:51:45.818Z,102709.13
2022-12-18T02:52:50.063Z,102718.33
2022-12-18T02:53:54.305Z,102705.88
2022-12-18T02:54:58.785Z,102709.55
2022-12-18T02:56:03.033Z,102719.67
2022-12-18T02:57:07.284Z,102719.92
2022-12-18T02:58:12.315Z,102718.59
2022-12-18T02:59:16.553Z,102724.89
2022-12-18T03:00:20.772Z,102717.76
2022-12-18T03:01:25.317Z,102712.95
2022-12-18T03:02:30.154Z,102722.34
2022-12-18T03:03:34.873Z,102717.91
2022-12-18T03:04:39.448Z,102720.43
2022-12-18T03:05:44.704Z,102724.36
2022-12-18T03:06:49.535Z,102713.94
2022-12-18T03:07:53.824Z,102718.25
2022-12-18T03:08:58.051Z,102717.25
2022-12-18T03:10:02.278Z,102723.41
2022-12-18T03:11:06.518Z,102727.61
2022-12-18T03:12:10.733Z,102727.11
2022-12-18T03:13:15.985Z,102722.88
2022-12-18T03:14:20.285Z,102726.88
2022-12-18T03:15:24.603Z,102725.47
2022-12-18T03:16:29.225Z,102727.19
2022-12-18T03:17:33.513Z,102726.84
2022-12-18T03:18:37.780Z,102727.65
2022-12-18T03:19:41.998Z,102724.41
2022-12-18T03:20:46.245Z,102734.56
2022-12-18T03:21:50.482Z,102733.98
2022-12-18T03:22:55.117Z,102724.94
2022-12-18T03:23:59.324Z,102731.77
2022-12-18T03:25:03.583Z,102731.27
2022-12-18T03:26:08.750Z,102738.37
2022-12-18T03:27:12.975Z,102732.19
2022-12-18T03:28:17.203Z,102737.73
2022-12-18T03:29:21.422Z,102739.45
2022-12-18T03:30:25.648Z,102743.08
2022-12-18T03:31:29.998Z,102748.57
2022-12-18T03:32:34.255Z,102745.55
2022-12-18T03:33:39.454Z,102746.06
2022-12-18T03:34:44.783Z,102750.95
2022-12-18T03:35:49.123Z,102752.23
2022-12-18T03:36:53.334Z,102746.52
2022-12-18T03:37:57.556Z,102749.77
2022-12-18T03:39:01.773Z,102748.12
2022-12-18T03:40:05.987Z,102747.27
2022-12-18T03:41:10.206Z,102743.38
2022-12-18T03:42:14.437Z,102736.52
2022-12-18T03:43:20.980Z,102741.81
2022-12-18T03:44:25.228Z,102737.92
2022-12-18T03:45:29.439Z,102737.12
2022-12-18T03:46:33.773Z,102737.12
2022-12-18T03:47:38.128Z,102736.17
2022-12-18T03:48:42.834Z,102742.43
2022-12-18T03:49:47.060Z,102741.81
2022-12-18T03:50:51.283Z,102744.11
2022-12-18T03:51:55.527Z,102746.02
2022-12-18T03:52:59.750Z,102746.59
2022-12-18T03:54:04.210Z,102740.75
2022-12-18T03:55:08.428Z,102746.06
2022-12-18T03:56:13.334Z,102749.84
2022-12-18T03:57:17.575Z,102740.26
2022-12-18T03:58:21.828Z,102746.7
2022-12-18T03:59:26.048Z,102748.16
2022-12-18T04:00:30.242Z,102745.75
2022-12-18T04:01:34.676Z,102751.25
2022-12-18T04:02:39.402Z,102759
2022-12-18T04:03:44.940Z,102759.95
2022-12-18T04:04:49.676Z,102751.4
2022-12-18T04:05:53.872Z,102756.78
2022-12-18T04:06:58.099Z,102755.64
2022-12-18T04:08:02.320Z,102757.85
2022-12-18T04:09:06.561Z,102759.65
2022-12-18T04:10:10.779Z,102758.42
2022-12-18T04:11:15.010Z,102752.97
2022-12-18T04:12:19.242Z,102752.92
2022-12-18T04:13:23.491Z,102750.25
2022-12-18T04:14:27.850Z,102755.18
2022-12-18T04:15:32.148Z,102751.36
2022-12-18T04:16:36.441Z,102751.86
2022-12-18T04:17:40.663Z,102748.73
2022-12-18T04:18:44.897Z,102752.39
2022-12-18T04:19:49.511Z,102755.41
2022-12-18T04:20:53.784Z,102745.45
2022-12-18T04:21:59.049Z,102752.05
2022-12-18T04:23:03.296Z,102751.83
2022-12-18T04:24:07.755Z,102754.64
2022-12-18T04:25:11.972Z,102752.5
2022-12-18T04:26:16.233Z,102752.92
2022-12-18T04:27:20.450Z,102756.52
2022-12-18T04:28:25.101Z,102761.21
2022-12-18T04:29:30.351Z,102762.31
2022-12-18T04:30:34.611Z,102761.41
2022-12-18T04:31:38.896Z,102767.81
2022-12-18T04:32:45.550Z,102781.55
2022-12-18T04:33:55.757Z,102781.52
2022-12-18T04:35:00.024Z,102780.45
2022-12-18T04:36:04.249Z,102778.13
2022-12-18T04:37:08.532Z,102782.47
2022-12-18T04:38:12.776Z,102780.69
2022-12-18T04:39:17.015Z,102783.73
2022-12-18T04:40:21.250Z,102782.55
2022-12-18T04:41:25.484Z,102783.28
2022-12-18T04:42:29.758Z,102792.02
2022-12-18T04:43:33.986Z,102794.3
2022-12-18T04:44:38.214Z,102793.53
2022-12-18T04:45:42.428Z,102794.91
2022-12-18T04:46:46.843Z,102800.64
2022-12-18T04:47:51.263Z,102797.78
2022-12-18T04:48:55.471Z,102790.38
2022-12-18T04:49:59.707Z,102803.45
2022-12-18T04:51:03.947Z,102802.02
2022-12-18T04:52:08.224Z,102810.07
2022-12-18T04:53:12.469Z,102803.73
2022-12-18T04:54:16.679Z,102804.23
2022-12-18T04:55:20.943Z,102802.89
2022-12-18T04:56:25.137Z,102804.72
2022-12-18T04:57:29.362Z,102809.3
2022-12-18T04:58:33.588Z,102811.78
2022-12-18T04:59:37.845Z,102809.08
2022-12-18T05:00:42.078Z,102812.48
2022-12-18T05:01:46.572Z,102807.33
2022-12-18T05:02:51.404Z,102805.16
2022-12-18T05:03:56.183Z,102809.47
2022-12-18T05:05:00.501Z,102808.56
2022-12-18T05:06:04.737Z,102813.45
2022-12-18T05:07:09.090Z,102808.67
2022-12-18T05:08:13.325Z,102814.47
2022-12-18T05:09:18.121Z,102815.52
2022-12-18T05:10:23.751Z,102807.47
2022-12-18T05:11:27.971Z,102813.65
2022-12-18T05:12:32.229Z,102810.46
2022-12-18T05:13:36.772Z,102810.75
2022-12-18T05:14:41.636Z,102812.73
2022-12-18T05:15:45.889Z,102808.51
2022-12-18T05:16:50.195Z,102810.07
2022-12-18T05:17:54.393Z,102810.45
2022-12-18T05:18:58.623Z,102813.08
2022-12-18T05:20:02.868Z,102811.25
2022-12-18T05:21:07.160Z,102809.87
2022-12-18T05:22:11.360Z,102810.78
2022-12-18T05:23:15.682Z,102814.42
2022-12-18T05:24:19.904Z,102822.98
2022-12-18T05:25:24.131Z,102821.66
2022-12-18T05:26:28.338Z,102827.89
2022-12-18T05:27:32.576Z,102830.14
2022-12-18T05:28:36.835Z,102833.31
2022-12-18T05:29:41.042Z,102835.99
2022-12-18T05:30:46.227Z,102839.09
2022-12-18T05:31:50.588Z,102836.8
2022-12-18T05:32:55.774Z,102839.73
2022-12-18T05:34:00.015Z,102844.77
2022-12-18T05:35:04.260Z,102849.42
2022-12-18T05:36:08.521Z,102842.56
2022-12-18T05:37:12.762Z,102842.66
2022-12-18T05:38:16.993Z,102849.36
2022-12-18T05:39:21.224Z,102848.41
2022-12-18T05:40:25.433Z,102851.04
2022-12-18T05:41:29.656Z,102855.31
2022-12-18T05:42:33.895Z,102858.38
2022-12-18T05:43:39.135Z,102861.47
2022-12-18T05:44:44.192Z,102856.23
2022-12-18T05:45:48.399Z,102859.88
2022-12-18T05:46:52.778Z,102858.11
2022-12-18T05:47:59.026Z,102859.74
2022-12-18T05:49:03.262Z,102863.5
2022-12-18T05:50:07.491Z,102859.73
2022-12-18T05:51:11.728Z,102863.52
2022-12-18T05:52:15.976Z,102866.36
2022-12-18T05:53:20.231Z,102863.8
2022-12-18T05:54:25.479Z,102865.72
2022-12-18T05:55:29.697Z,102865.08
2022-12-18T05:56:34.063Z,102870.09
2022-12-18T05:57:38.319Z,102861.3
2022-12-18T05:58:42.717Z,102866.44
2022-12-18T05:59:46.936Z,102866.59
2022-12-18T06:00:51.147Z,102868.47
2022-12-18T06:01:55.694Z,102871.77
2022-12-18T06:03:00.468Z,102880.38
2022-12-18T06:04:06.529Z,102876.91
2022-12-18T06:05:11.010Z,102876.56
2022-12-18T06:06:15.260Z,102883.83
2022-12-18T06:07:19.507Z,102885.28
2022-12-18T06:08:23.734Z,102890.67
2022-12-18T06:09:27.968Z,102896.03
2022-12-18T06:10:32.161Z,102898.75
2022-12-18T06:11:36.371Z,102903.67
2022-12-18T06:12:41.272Z,102904.17
2022-12-18T06:13:46.330Z,102910.98
2022-12-18T06:14:50.620Z,102910.14
2022-12-18T06:15:54.970Z,102919.16
2022-12-18T06:17:00.355Z,102913
2022-12-18T06:18:04.567Z,102904.56
2022-12-18T06:19:08.780Z,102910.56
2022-12-18T06:20:13.026Z,102910.75
2022-12-18T06:21:17.253Z,102909.34
2022-12-18T06:22:21.480Z,102905.59
2022-12-18T06:23:25.740Z,102910.56
2022-12-18T06:24:30.217Z,102902.54
2022-12-18T06:25:34.446Z,102910.64
2022-12-18T06:26:38.656Z,102908.47
2022-12-18T06:27:43.937Z,102908
2022-12-18T06:28:48.655Z,102913.31
2022-12-18T06:29:52.874Z,102910.83
2022-12-18T06:30:57.234Z,102910.95
2022-12-18T06:32:01.673Z,102910.45
2022-12-18T06:33:06.030Z,102912.28
2022-12-18T06:34:10.241Z,102919.36
2022-12-18T06:35:14.500Z,102923.38
2022-12-18T06:36:18.739Z,102917.02
2022-12-18T06:37:23.002Z,102920.23
2022-12-18T06:38:27.260Z,102919.5
2022-12-18T06:39:31.491Z,102918.97
2022-12-18T06:40:35.736Z,102914.34
2022-12-18T06:41:41.906Z,102912.36
2022-12-18T06:42:46.108Z,102913.16
2022-12-18T06:43:50.560Z,102913.92
2022-12-18T06:44:57.784Z,102913.24
2022-12-18T06:46:02.239Z,102918.89
2022-12-18T06:47:06.518Z,102911.45
2022-12-18T06:48:10.799Z,102911.52
2022-12-18T06:49:15.072Z,102918.13
2022-12-18T06:50:20.106Z,102921.37
2022-12-18T06:51:24.330Z,102918.32
2022-12-18T06:52:28.665Z,102922.3
2022-12-18T06:53:32.903Z,102921.91
2022-12-18T06:54:37.173Z,102916.98
2022-12-18T06:55:42.541Z,102921.03
2022-12-18T06:56:46.796Z,102926.88
2022-12-18T06:57:51.023Z,102923.09
2022-12-18T06:58:55.273Z,102928.3
2022-12-18T06:59:59.473Z,102928.48
2022-12-18T07:01:03.859Z,102938.38
2022-12-18T07:02:08.412Z,102934.02
2022-12-18T07:03:13.299Z,102943.81
2022-12-18T07:04:17.687Z,102940.67
2022-12-18T07:05:21.909Z,102938.34
2022-12-18T07:06:26.154Z,102939.3
2022-12-18T07:07:30.400Z,102942.44
2022-12-18T07:08:34.709Z,102945.98
2022-12-18T07:09:38.933Z,102942.58
2022-12-18T07:10:51.703Z,102945.64
2022-12-18T07:12:00.403Z,102958.48
2022-12-18T07:13:04.627Z,102950.45
2022-12-18T07:14:08.879Z,102954.01
2022-12-18T07:15:13.130Z,102956
2022-12-18T07:16:26.084Z,102951.95
2022-12-18T07:17:30.539Z,102956.41
2022-12-18T07:18:34.759Z,102955.53
2022-12-18T07:19:39.011Z,102950.52
2022-12-18T07:20:43.234Z,102951.97
2022-12-18T07:21:47.442Z,102945.82
2022-12-18T07:22:57.072Z,102948.69
2022-12-18T07:24:01.296Z,102951.89
2022-12-18T07:25:05.507Z,102959.81
2022-12-18T07:26:09.760Z,102957.2
2022-12-18T07:27:14.312Z,102952.81
2022-12-18T07:28:18.844Z,102957.2
2022-12-18T07:29:23.073Z,102953.13
2022-12-18T07:30:27.334Z,102956.25
2022-12-18T07:31:32.177Z,102953.24
2022-12-18T07:32:36.504Z,102953.55
2022-12-18T07:33:41.731Z,102955.2
2022-12-18T07:34:48.208Z,102956.19
2022-12-18T07:35:52.415Z,102958.22
2022-12-18T07:36:56.620Z,102962.84
2022-12-18T07:38:00.880Z,102960.2
2022-12-18T07:39:05.115Z,102968.57
2022-12-18T07:40:09.339Z,102968.95
2022-12-18T07:41:13.580Z,102975.22
2022-12-18T07:42:17.800Z,102973.92
2022-12-18T07:43:22.022Z,102970.83
2022-12-18T07:44:27.309Z,102982.9
2022-12-18T07:45:31.635Z,102985.34
2022-12-18T07:46:35.958Z,102987.86
2022-12-18T07:47:40.197Z,102986.03
2022-12-18T07:48:50.468Z,102993.25
2022-12-18T07:49:54.763Z,102995.55
2022-12-18T07:50:59.019Z,102997.8
2022-12-18T07:52:03.235Z,102996.7
2022-12-18T07:53:07.447Z,103001.02
2022-12-18T07:54:11.659Z,102997.58
2022-12-18T07:55:15.880Z,102997.19
2022-12-18T07:56:30.211Z,103000.63
2022-12-18T07:57:54.272Z,103001
2022-12-18T07:59:04.414Z,103008.27
2022-12-18T08:00:08.646Z,102997.78
2022-12-18T08:01:12.999Z,102998.31
2022-12-18T08:02:17.770Z,103005.04
2022-12-18T08:03:23.401Z,103001.98
2022-12-18T08:04:28.007Z,103006.14
2022-12-18T08:05:32.242Z,103005.33
2022-12-18T08:06:36.446Z,103006.28
2022-12-18T08:07:40.695Z,103008.05
2022-12-18T08:08:44.929Z,103012.86
2022-12-18T08:09:49.159Z,103011.52
2022-12-18T08:10:53.488Z,103018.25
2022-12-18T08:11:57.727Z,103021.8
2022-12-18T08:13:05.992Z,103022.19
2022-12-18T08:14:10.223Z,103018.17
2022-12-18T08:15:14.469Z,103022.99
2022-12-18T08:16:18.932Z,103015.66
2022-12-18T08:17:24.107Z,103022.59
2022-12-18T08:18:28.312Z,103024.16
2022-12-18T08:19:32.632Z,103023.8
2022-12-18T08:20:36.903Z,103023.11
2022-12-18T08:21:41.316Z,103031.8
2022-12-18T08:22:45.530Z,103025.34
2022-12-18T08:23:51.575Z,103030.89
2022-12-18T08:24:56.181Z,103031.31
2022-12-18T08:26:00.415Z,103026.95
2022-12-18T08:27:30.501Z,103017.89
2022-12-18T08:28:34.902Z,103017.59
2022-12-18T08:29:39.128Z,103022.13
2022-12-18T08:30:43.468Z,103016.59
2022-12-18T08:31:48.493Z,103023.77
2022-12-18T08:32:52.846Z,103023.03
2022-12-18T08:33:57.760Z,103025.98
2022-12-18T08:35:01.979Z,103025.98
2022-12-18T08:36:06.189Z,103029.77
2022-12-18T08:37:10.420Z,103026.93
2022-12-18T08:38:14.635Z,103023.88
2022-12-18T08:39:19.244Z,103023.55
2022-12-18T08:40:23.467Z,103023.27
2022-12-18T08:41:27.716Z,103027.76
2022-12-18T08:42:32.086Z,103024.89
2022-12-18T08:43:36.552Z,103019.15
2022-12-18T08:44:41.421Z,103016.48
2022-12-18T08:45:45.813Z,103017.92
2022-12-18T08:46:50.176Z,103015.81
2022-12-18T08:47:54.477Z,103018.6
2022-12-18T08:48:58.672Z,103017.3
2022-12-18T08:50:02.912Z,103018.44
2022-12-18T08:51:07.158Z,103012.41
2022-12-18T08:52:11.509Z,103019.21
2022-12-18T08:53:15.742Z,103019.28
2022-12-18T08:54:19.975Z,103006.3
2022-12-18T08:55:24.196Z,103014.32
2022-12-18T08:56:28.399Z,103009.31
2022-12-18T08:57:32.755Z,103009.88
2022-12-18T08:58:37.159Z,103010.11
2022-12-18T08:59:41.364Z,103006.55
2022-12-18T09:00:45.599Z,103006.59
2022-12-18T09:01:50.180Z,102999.52
2022-12-18T09:02:55.000Z,102995.97
2022-12-18T09:03:59.552Z,102999.14
2022-12-18T09:05:03.807Z,102995.16
2022-12-18T09:06:08.028Z,102989.17
2022-12-18T09:07:12.273Z,102985.92
2022-12-18T09:08:16.474Z,102985.08
2022-12-18T09:09:20.779Z,102977.94
2022-12-18T09:10:25.019Z,102980.5
2022-12-18T09:11:29.763Z,102977.55
2022-12-18T09:12:37.263Z,102976.83
2022-12-18T09:13:42.500Z,102988.26
2022-12-18T09:14:47.096Z,102986.81
2022-12-18T09:15:51.569Z,102983.03
2022-12-18T09:16:56.051Z,102987.62
2022-12-18T09:18:00.367Z,102985.86
2022-12-18T09:19:04.585Z,102982.23
2022-12-18T09:20:08.851Z,102977.45
2022-12-18T09:21:13.077Z,102980.31
2022-12-18T09:22:17.392Z,102978.78
2022-12-18T09:23:21.611Z,102980.5
2022-12-18T09:24:25.824Z,102975.58
2022-12-18T09:25:30.087Z,102976.8
2022-12-18T09:26:34.296Z,102978.59
2022-12-18T09:27:38.529Z,102981.66
2022-12-18T09:28:43.944Z,102981.12
2022-12-18T09:29:48.293Z,102979.09
2022-12-18T09:30:52.642Z,102979.05
2022-12-18T09:31:57.002Z,102981.96
2022-12-18T09:33:01.292Z,102992.17
2022-12-18T09:34:05.513Z,102985.02
2022-12-18T09:35:10.210Z,102992.2
2022-12-18T09:36:14.480Z,102993.2
2022-12-18T09:37:18.688Z,102998.55
2022-12-18T09:38:22.901Z,102999.55
2022-12-18T09:39:27.123Z,103000.42
2022-12-18T09:40:31.348Z,102995.58
2022-12-18T09:41:35.570Z,102994.95
2022-12-18T09:42:39.796Z,102988.69
2022-12-18T09:43:44.075Z,102992.25
2022-12-18T09:44:48.427Z,102998.38
2022-12-18T09:45:52.846Z,102992.78
2022-12-18T09:46:57.148Z,102990.75
2022-12-18T09:48:01.352Z,102996.15
2022-12-18T09:49:06.038Z,102998.56
2022-12-18T09:50:17.467Z,102992.9
2022-12-18T09:51:21.843Z,102999.25
2022-12-18T09:52:26.071Z,103003.83
2022-12-18T09:53:30.280Z,103000.39
2022-12-18T09:54:34.501Z,102999.05
2022-12-18T09:55:38.771Z,102999.02
2022-12-18T09:56:43.004Z,103000.35
2022-12-18T09:57:47.212Z,103000.2
2022-12-18T09:58:51.453Z,102999.73
2022-12-18T09:59:55.695Z,102998.78
2022-12-18T10:00:59.924Z,102999.9
2022-12-18T10:02:04.340Z,103002
2022-12-18T10:03:09.245Z,103001.55
2022-12-18T10:04:14.046Z,102995.77
2022-12-18T10:05:18.411Z,102994.28
2022-12-18T10:06:24.932Z,102997.8
2022-12-18T10:07:29.208Z,102992.9
2022-12-18T10:08:33.454Z,103000.48
2022-12-18T10:09:37.698Z,102999.86
2022-12-18T10:10:41.937Z,102995.16
2022-12-18T10:11:46.159Z,102993.31
2022-12-18T10:12:50.378Z,102994.2
2022-12-18T10:13:54.579Z,102993.97
2022-12-18T10:14:58.843Z,102987.35
2022-12-18T10:16:03.294Z,102988.08
2022-12-18T10:17:07.632Z,102989.57
2022-12-18T10:18:12.282Z,102987.42
2022-12-18T10:19:23.585Z,102990.64
2022-12-18T10:20:27.791Z,102991.48
2022-12-18T10:21:32.031Z,102990.64
2022-12-18T10:22:36.261Z,102992.94
2022-12-18T10:23:48.304Z,102995.27
2022-12-18T10:24:52.680Z,103008.8
2022-12-18T10:25:56.899Z,103010.22
2022-12-18T10:27:01.115Z,103013.84
2022-12-18T10:28:05.362Z,103015.19
2022-12-18T10:29:10.124Z,103016.06
2022-12-18T10:30:14.348Z,103012.29
2022-12-18T10:31:18.717Z,103007.55
2022-12-18T10:32:23.136Z,103006.73
2022-12-18T10:33:27.361Z,103007.7
2022-12-18T10:34:31.629Z,103003.3
2022-12-18T10:35:35.863Z,103003.48
2022-12-18T10:36:40.124Z,103010.67
2022-12-18T10:37:45.102Z,103015.64
2022-12-18T10:38:49.317Z,103009.91
2022-12-18T10:39:53.565Z,103010.36
2022-12-18T10:40:57.790Z,103016.74
2022-12-18T10:42:02.022Z,103017.31
2022-12-18T10:43:06.235Z,103019.03
2022-12-18T10:44:10.494Z,103019.11
2022-12-18T10:45:15.782Z,103016.55
2022-12-18T10:46:21.483Z,103023.66
2022-12-18T10:47:25.947Z,103023.23
2022-12-18T10:48:30.185Z,103019.68
2022-12-18T10:49:34.442Z,103010.81
2022-12-18T10:51:12.476Z,103016.16
2022-12-18T10:52:17.766Z,103012.04
2022-12-18T10:53:22.740Z,103014.19
2022-12-18T10:54:26.957Z,103015.48
2022-12-18T10:55:31.255Z,103014.48
2022-12-18T10:56:35.512Z,103005.89
2022-12-18T10:57:39.747Z,103011.59
2022-12-18T10:58:44.995Z,103012.81
2022-12-18T10:59:50.100Z,103016.22
2022-12-18T11:00:54.323Z,103009.11
2022-12-18T11:01:58.926Z,103007.7
2022-12-18T11:03:03.941Z,103004.56
2022-12-18T11:04:08.535Z,103005.52
2022-12-18T11:05:13.411Z,103001.2
2022-12-18T11:06:19.862Z,103000.77
2022-12-18T11:07:24.136Z,102994.89
2022-12-18T11:08:28.369Z,102989.69
2022-12-18T11:09:32.610Z,102995.57
2022-12-18T11:10:36.833Z,102996.14
2022-12-18T11:11:41.108Z,102993.89
2022-12-18T11:12:45.362Z,102989.07
2022-12-18T11:13:49.593Z,102994.03
2022-12-18T11:14:53.830Z,102994.19
2022-12-18T11:15:58.181Z,102990.63
2022-12-18T11:17:32.509Z,102983.03
2022-12-18T11:18:36.735Z,102981.84
2022-12-18T11:19:41.471Z,102986.73
2022-12-18T11:20:45.690Z,102989.94
2022-12-18T11:21:49.929Z,102994.84
2022-12-18T11:22:54.168Z,102990.97
2022-12-18T11:23:58.403Z,102999.42
2022-12-18T11:25:34.312Z,103006.56
2022-12-18T11:26:40.385Z,102996.75
2022-12-18T11:27:45.326Z,102996.25
2022-12-18T11:28:49.557Z,102987.91
2022-12-18T11:29:53.756Z,102988.91
2022-12-18T11:30:58.098Z,102992.11
2022-12-18T11:32:02.459Z,102994.55
2022-12-18T11:33:06.661Z,102988.82
2022-12-18T11:34:30.574Z,102984.46
2022-12-18T11:35:36.129Z,102983.93
2022-12-18T11:36:40.648Z,102986.56
2022-12-18T11:37:44.886Z,102974.07
2022-12-18T11:38:49.152Z,102972.59
2022-12-18T11:39:53.424Z,102973.81
2022-12-18T11:40:57.664Z,102978.09
2022-12-18T11:42:01.899Z,102980.19
2022-12-18T11:43:06.210Z,102979.59
2022-12-18T11:44:10.780Z,102979.79
2022-12-18T11:45:15.005Z,102979.52
2022-12-18T11:46:21.203Z,102985.67
2022-12-18T11:47:26.115Z,102976.8
2022-12-18T11:48:31.356Z,102984.41
2022-12-18T11:49:35.584Z,102981.01
2022-12-18T11:50:39.801Z,102981.46
2022-12-18T11:51:44.032Z,102980.7
2022-12-18T11:52:57.461Z,102981.12
2022-12-18T11:54:09.128Z,102986.63
2022-12-18T11:55:13.445Z,102981.74
2022-12-18T11:56:19.908Z,102986.25
2022-12-18T11:57:24.138Z,102986.29
2022-12-18T11:58:40.695Z,102999.25
2022-12-18T11:59:45.548Z,102994.85
2022-12-18T12:00:49.776Z,102991.95
2022-12-18T12:01:54.212Z,102989.69
2022-12-18T12:02:58.893Z,102989.8
2022-12-18T12:04:03.487Z,102992.52
2022-12-18T12:05:07.914Z,102994.39
2022-12-18T12:06:12.161Z,102997.72
2022-12-18T12:07:17.289Z,102994.55
2022-12-18T12:08:22.069Z,102996.27
2022-12-18T12:09:26.272Z,102994.62
2022-12-18T12:10:30.491Z,103001.39
2022-12-18T12:11:34.726Z,102995.58
2022-12-18T12:12:40.268Z,103007.27
2022-12-18T12:13:51.324Z,103008.76
2022-12-18T12:14:57.098Z,103003.37
2022-12-18T12:16:02.344Z,103014.11
2022-12-18T12:17:06.625Z,103013.42
2022-12-18T12:18:12.689Z,103008.14
2022-12-18T12:19:16.918Z,103012.2
2022-12-18T12:20:21.138Z,103014.38
2022-12-18T12:21:25.370Z,103013.05
2022-12-18T12:22:30.709Z,103013.61